Time;durP1;ratioP1;P1;durP2;ratioP2;P2;SDS_P1;SDS_P2;PMS_P1;PMS_P2;Temp;Humidity;BMP_temperature;BMP_pressure;BME280_temperature;BME280_humidity;BME280_pressure;Samples;Min_cycle;Max_cycle;Signal;HPM_P1;HPM_P2
2021/01/31 00:03:41;;;;;;;4.97;2.58;;;0.50;98.80;;;;;;7944205;29;20416;-67
2021/01/31 00:07:42;;;;;;;4.88;2.45;;;-1.70;97.90;;;;;;7947320;29;20050;-66
2021/01/31 00:11:43;;;;;;;5.07;2.58;;;-1.70;97.60;;;;;;7955130;29;20074;-65
2021/01/31 00:15:47;;;;;;;5.30;2.58;;;-1.60;97.60;;;;;;7953064;29;20069;-68
2021/01/31 00:19:49;;;;;;;5.38;2.22;;;-1.50;97.70;;;;;;7941370;29;20129;-67
2021/01/31 00:23:50;;;;;;;4.95;2.15;;;-1.50;97.50;;;;;;7943774;29;20052;-67
2021/01/31 00:27:53;;;;;;;6.60;2.45;;;-1.40;97.30;;;;;;7945267;29;20042;-66
2021/01/31 00:31:55;;;;;;;4.32;2.22;;;-1.30;97.90;;;;;;7960244;29;20131;-68
2021/01/31 00:35:57;;;;;;;5.80;2.25;;;-1.30;97.50;;;;;;7944678;29;20073;-68
2021/01/31 00:39:59;;;;;;;5.88;2.42;;;-1.20;97.80;;;;;;7941985;29;20050;-66
2021/01/31 00:44:02;;;;;;;5.18;1.63;;;-1.10;97.90;;;;;;7944155;29;20414;-66
2021/01/31 00:48:06;;;;;;;6.15;2.30;;;-1.10;98.40;;;;;;7954549;29;20050;-67
2021/01/31 00:52:07;;;;;;;4.57;2.05;;;-1.00;97.70;;;;;;7939160;29;20046;-68
2021/01/31 00:56:11;;;;;;;5.53;2.03;;;-0.90;97.80;;;;;;7944520;29;20062;-67
2021/01/31 01:00:25;;;;;;;5.43;2.15;;;-0.90;98.30;;;;;;7940461;29;20058;-68
2021/01/31 01:04:27;;;;;;;4.90;2.13;;;-0.80;97.70;;;;;;7941366;29;20085;-68
2021/01/31 01:08:42;;;;;;;6.10;1.95;;;-0.80;97.40;;;;;;7949871;29;20093;-67
2021/01/31 01:12:43;;;;;;;4.38;2.17;;;-0.70;97.60;;;;;;7935619;29;20052;-69
2021/01/31 01:16:44;;;;;;;4.67;1.97;;;-0.70;97.60;;;;;;7944952;29;20062;-68
2021/01/31 01:20:46;;;;;;;4.40;2.25;;;-0.60;98.20;;;;;;7945449;29;20458;-67
2021/01/31 01:24:52;;;;;;;5.15;2.40;;;-0.60;98.00;;;;;;7949823;29;20057;-68
2021/01/31 01:28:57;;;;;;;5.50;2.40;;;-0.50;97.80;;;;;;7934572;29;20494;-66
2021/01/31 01:33:00;;;;;;;5.85;2.25;;;-0.50;99.20;;;;;;7942663;29;20054;-67
2021/01/31 01:37:01;;;;;;;6.25;2.30;;;-0.50;98.40;;;;;;7939245;29;20066;-68
2021/01/31 01:41:03;;;;;;;4.03;1.80;;;-0.40;98.30;;;;;;7945364;29;20973;-68
2021/01/31 01:45:04;;;;;;;8.35;2.30;;;-0.40;98.20;;;;;;7954510;29;20483;-68
2021/01/31 01:49:13;;;;;;;6.53;3.17;;;-0.40;98.90;;;;;;7935438;29;20050;-68
2021/01/31 01:53:17;;;;;;;4.70;2.03;;;-0.40;99.00;;;;;;7941019;29;20054;-68
2021/01/31 01:57:23;;;;;;;4.57;2.10;;;-0.30;98.90;;;;;;7940932;29;20089;-69
2021/01/31 02:01:25;;;;;;;5.80;2.38;;;-0.40;98.30;;;;;;7953303;29;20046;-69
2021/01/31 02:05:27;;;;;;;4.47;2.13;;;-0.30;98.30;;;;;;7943612;29;20059;-68
2021/01/31 02:09:29;;;;;;;4.63;2.22;;;-0.30;98.60;;;;;;7946198;29;20058;-68
2021/01/31 02:13:32;;;;;;;6.05;2.35;;;-0.30;98.70;;;;;;7951295;29;20149;-68
2021/01/31 02:17:46;;;;;;;8.45;3.10;;;-0.20;98.30;;;;;;7945708;29;20042;-69
2021/01/31 02:21:58;;;;;;;5.63;2.35;;;-0.20;98.10;;;;;;7947865;29;20050;-68
2021/01/31 02:26:05;;;;;;;;;;;-0.20;98.30;;;;;;7944162;29;20114;-67
2021/01/31 02:30:12;;;;;;;4.55;2.20;;;-0.10;98.80;;;;;;7941494;29;19929;-68
2021/01/31 02:34:55;;;;;;;5.47;2.50;;;-0.10;98.00;;;;;;7947291;29;20128;-68
2021/01/31 02:39:09;;;;;;;4.75;2.17;;;0.00;97.80;;;;;;7946903;29;20054;-68
2021/01/31 02:43:15;;;;;;;6.07;2.00;;;0.00;97.90;;;;;;7950578;29;20098;-68
2021/01/31 02:47:21;;;;;;;4.53;1.48;;;0.10;98.80;;;;;;7959780;29;20077;-67
2021/01/31 02:51:28;;;;;;;6.13;1.98;;;0.10;98.30;;;;;;7942650;29;20135;-67
2021/01/31 02:55:33;;;;;;;6.22;2.13;;;0.20;99.00;;;;;;7942068;29;20055;-67
2021/01/31 02:59:53;;;;;;;8.32;2.22;;;0.30;98.30;;;;;;7942478;29;20051;-67
2021/01/31 03:04:13;;;;;;;5.32;1.80;;;0.40;98.30;;;;;;7954966;29;20065;-68
2021/01/31 03:08:24;;;;;;;4.82;1.65;;;0.40;98.20;;;;;;7957856;29;20141;-69
2021/01/31 03:12:45;;;;;;;5.68;1.67;;;0.50;98.20;;;;;;7942729;29;20073;-68
2021/01/31 03:16:59;;;;;;;6.25;1.33;;;0.50;98.30;;;;;;7944356;29;20062;-68
2021/01/31 03:21:13;;;;;;;7.65;1.65;;;-0.10;98.00;;;;;;7948457;29;20047;-67
2021/01/31 03:25:25;;;;;;;7.13;1.58;;;0.50;99.40;;;;;;7961794;29;20066;-68
2021/01/31 03:29:29;;;;;;;13.27;1.52;;;0.50;98.70;;;;;;7955625;29;20079;-68
2021/01/31 03:33:40;;;;;;;4.63;1.50;;;0.50;98.50;;;;;;7947550;29;20062;-68
2021/01/31 03:37:58;;;;;;;3.15;1.40;;;0.50;98.60;;;;;;7945319;29;20055;-69
2021/01/31 03:41:59;;;;;;;5.40;1.60;;;0.50;99.50;;;;;;7957482;29;20589;-69
2021/01/31 03:46:14;;;;;;;6.30;1.52;;;0.50;99.00;;;;;;7930418;29;20054;-69
2021/01/31 03:50:16;;;;;;;6.88;1.27;;;0.50;98.80;;;;;;7956841;29;20073;-69
2021/01/31 03:54:18;;;;;;;7.10;1.33;;;0.50;99.00;;;;;;7952818;29;20054;-69
2021/01/31 03:58:20;;;;;;;;;;;0.50;99.00;;;;;;7933349;29;20402;-69
2021/01/31 04:02:32;;;;;;;5.60;1.00;;;0.60;99.40;;;;;;7929747;29;20019;-68
2021/01/31 04:06:36;;;;;;;6.78;1.25;;;0.60;98.80;;;;;;7946538;29;20111;-68
2021/01/31 04:10:44;;;;;;;9.73;1.60;;;0.50;98.70;;;;;;7951687;29;20531;-68
2021/01/31 04:15:00;;;;;;;7.47;1.20;;;0.50;98.70;;;;;;7943957;29;20483;-68
2021/01/31 04:19:04;;;;;;;6.40;1.35;;;0.50;99.60;;;;;;7942376;29;20074;-68
2021/01/31 04:23:05;;;;;;;4.43;1.20;;;0.50;98.90;;;;;;7946898;29;20046;-67
2021/01/31 04:27:07;;;;;;;2.72;1.10;;;0.60;99.30;;;;;;7948772;29;20050;-68
2021/01/31 04:31:08;;;;;;;3.38;0.90;;;0.60;98.70;;;;;;7947861;29;20058;-67
2021/01/31 04:35:11;;;;;;;8.48;1.27;;;0.60;99.00;;;;;;7939337;29;20147;-68
2021/01/31 04:39:12;;;;;;;6.10;1.08;;;0.60;98.80;;;;;;7944450;29;20062;-68
2021/01/31 04:43:18;;;;;;;9.80;1.57;;;0.70;98.70;;;;;;7945902;29;20525;-67
2021/01/31 04:47:33;;;;;;;4.07;1.05;;;0.60;98.60;;;;;;7948960;29;20066;-68
2021/01/31 04:52:13;;;;;;;5.35;0.82;;;0.60;98.60;;;;;;7954924;29;20061;-69
2021/01/31 04:56:56;;;;;;;4.15;0.80;;;0.60;98.40;;;;;;7958510;29;20050;-66
2021/01/31 05:01:11;;;;;;;3.50;0.82;;;0.60;98.60;;;;;;7932421;29;20573;-67
2021/01/31 05:05:31;;;;;;;4.25;0.90;;;0.50;98.60;;;;;;7942522;29;20570;-67
2021/01/31 05:09:35;;;;;;;4.80;0.80;;;0.50;98.70;;;;;;7953270;29;20066;-68
2021/01/31 05:14:02;;;;;;;5.10;0.98;;;0.50;98.70;;;;;;7955801;29;20046;-68
2021/01/31 05:18:08;;;;;;;3.42;0.90;;;0.50;98.70;;;;;;7963960;29;20411;-69
2021/01/31 05:22:17;;;;;;;3.10;0.80;;;0.40;98.70;;;;;;7938350;29;20400;-68
2021/01/31 05:26:19;;;;;;;7.20;1.42;;;0.40;98.40;;;;;;7942263;29;20099;-68
2021/01/31 05:30:21;;;;;;;3.13;0.98;;;0.40;98.80;;;;;;7918777;29;20050;-69
2021/01/31 05:35:00;;;;;;;3.92;1.20;;;0.40;98.80;;;;;;7944534;29;20367;-70
2021/01/31 05:39:04;;;;;;;5.63;1.33;;;0.40;98.70;;;;;;7968185;29;20446;-69
2021/01/31 05:43:12;;;;;;;6.63;1.15;;;0.30;98.80;;;;;;7948553;29;20094;-68
2021/01/31 05:47:26;;;;;;;7.03;0.90;;;0.30;98.40;;;;;;7948752;29;20054;-66
2021/01/31 05:51:33;;;;;;;2.33;1.10;;;0.30;98.80;;;;;;7948989;29;20057;-68
2021/01/31 05:55:35;;;;;;;6.07;1.00;;;0.30;98.80;;;;;;7959119;29;20497;-68
2021/01/31 05:59:39;;;;;;;7.57;1.63;;;0.30;98.80;;;;;;7922500;29;20055;-67
2021/01/31 06:03:41;;;;;;;5.28;1.77;;;0.20;99.10;;;;;;7941569;29;20083;-69
2021/01/31 06:07:45;;;;;;;5.63;1.65;;;0.20;99.10;;;;;;7944260;29;20765;-68
2021/01/31 06:11:48;;;;;;;4.82;1.00;;;0.20;98.90;;;;;;7966572;29;20118;-69
2021/01/31 06:16:18;;;;;;;5.10;1.00;;;0.10;98.40;;;;;;7953336;29;20058;-68
2021/01/31 06:20:27;;;;;;;3.60;1.00;;;0.20;98.80;;;;;;7949833;29;20050;-68
2021/01/31 06:24:42;;;;;;;7.30;1.53;;;0.10;98.90;;;;;;7935594;29;20061;-68
2021/01/31 06:28:46;;;;;;;7.82;1.40;;;0.10;98.90;;;;;;7938304;29;20046;-69
2021/01/31 06:32:51;;;;;;;5.72;1.23;;;0.10;98.90;;;;;;7937667;29;20058;-69
2021/01/31 06:37:07;;;;;;;5.53;1.10;;;0.00;98.60;;;;;;7955083;29;20467;-68
2021/01/31 06:41:40;;;;;;;4.50;1.00;;;2.10;99.40;;;;;;7948787;29;20115;-68
2021/01/31 06:46:32;;;;;;;6.50;1.00;;;0.10;98.90;;;;;;7948035;29;20086;-68
2021/01/31 06:50:42;;;;;;;5.25;1.70;;;0.10;98.70;;;;;;7933127;29;20046;-69
2021/01/31 06:55:15;;;;;;;5.78;1.33;;;0.00;98.80;;;;;;7922125;29;20074;-68
2021/01/31 06:59:37;;;;;;;7.78;1.25;;;0.00;98.80;;;;;;7950702;29;20549;-70
2021/01/31 07:04:07;;;;;;;6.55;1.67;;;0.00;98.80;;;;;;7945771;29;21253;-72
2021/01/31 07:08:56;;;;;;;10.98;1.52;;;0.00;99.10;;;;;;7955532;29;20528;-71
2021/01/31 07:13:07;;;;;;;7.13;1.38;;;0.20;98.90;;;;;;7961415;29;20725;-72
2021/01/31 07:17:23;;;;;;;10.05;1.60;;;0.30;99.00;;;;;;7940649;29;20062;-71
2021/01/31 07:21:51;;;;;;;5.03;0.85;;;0.30;98.30;;;;;;7949976;29;20114;-72
2021/01/31 07:26:00;;;;;;;6.88;0.98;;;0.30;98.60;;;;;;7945814;29;20081;-70
2021/01/31 07:30:16;;;;;;;14.38;1.67;;;0.30;98.60;;;;;;7937239;29;20085;-69
2021/01/31 07:34:23;;;;;;;11.30;2.70;;;0.30;98.70;;;;;;7950112;29;20131;-70
2021/01/31 07:38:39;;;;;;;9.73;2.83;;;0.20;98.70;;;;;;7926751;29;20133;-70
2021/01/31 07:42:44;;;;;;;14.85;2.92;;;0.20;98.70;;;;;;7960176;29;20042;-69
2021/01/31 07:46:45;;;;;;;3.42;1.42;;;0.20;98.80;;;;;;7939958;29;20058;-70
2021/01/31 07:50:47;;;;;;;5.85;1.17;;;0.20;98.40;;;;;;7944406;29;20054;-70
2021/01/31 07:54:49;;;;;;;9.27;1.30;;;0.30;98.60;;;;;;7940243;29;20054;-69
2021/01/31 07:58:51;;;;;;;;;;;0.20;98.80;;;;;;7943886;29;20479;-69
2021/01/31 08:02:57;;;;;;;14.93;1.90;;;0.30;98.70;;;;;;7948040;29;20408;-69
2021/01/31 08:07:01;;;;;;;7.63;1.20;;;0.20;98.70;;;;;;7937682;29;20050;-70
2021/01/31 08:11:04;;;;;;;5.57;0.93;;;0.20;98.70;;;;;;7950880;29;20058;-69
2021/01/31 08:15:06;;;;;;;9.43;1.00;;;0.20;98.70;;;;;;7956325;29;20047;-69
2021/01/31 08:19:08;;;;;;;5.32;1.02;;;0.20;98.70;;;;;;7945202;29;20429;-70
2021/01/31 08:23:12;;;;;;;7.80;1.17;;;0.20;98.40;;;;;;7957138;29;20322;-70
2021/01/31 08:27:45;;;;;;;6.97;1.80;;;0.20;98.80;;;;;;7946947;29;20656;-70
2021/01/31 08:32:03;;;;;;;;;;;0.20;98.90;;;;;;7938561;29;20042;-70
2021/01/31 08:36:22;;;;;;;6.75;1.70;;;0.20;98.50;;;;;;7953530;29;20004;-69
2021/01/31 08:40:25;;;;;;;7.90;1.60;;;0.20;98.80;;;;;;7954853;29;20058;-70
2021/01/31 08:44:26;;;;;;;13.88;2.45;;;0.30;98.80;;;;;;7942081;29;20054;-70
2021/01/31 08:48:27;;;;;;;8.97;2.00;;;0.30;98.80;;;;;;7944759;29;20385;-70
2021/01/31 08:52:29;;;;;;;6.50;2.17;;;0.30;98.80;;;;;;7953822;29;20058;-70
2021/01/31 08:56:51;;;;;;;8.60;1.40;;;0.40;98.90;;;;;;7959669;29;20476;-70
2021/01/31 09:00:57;;;;;;;9.95;2.13;;;0.50;98.90;;;;;;7938292;29;20373;-70
2021/01/31 09:05:04;;;;;;;9.13;1.63;;;0.60;98.60;;;;;;7928031;29;20054;-70
2021/01/31 09:09:22;;;;;;;5.65;1.10;;;0.60;99.00;;;;;;7949982;29;20576;-70
2021/01/31 09:13:28;;;;;;;9.88;1.25;;;0.60;99.00;;;;;;7953624;29;20398;-70
2021/01/31 09:17:29;;;;;;;11.63;1.42;;;0.70;99.10;;;;;;7961482;29;20093;-70
2021/01/31 09:21:33;;;;;;;8.03;1.10;;;1.00;98.90;;;;;;7946536;29;20080;-70
2021/01/31 09:25:38;;;;;;;12.48;1.70;;;1.00;99.00;;;;;;7945759;29;20050;-70
2021/01/31 09:29:40;;;;;;;6.82;1.70;;;1.10;99.00;;;;;;7937963;29;20050;-70
2021/01/31 09:33:43;;;;;;;7.18;1.88;;;1.30;99.50;;;;;;7950475;29;20062;-70
2021/01/31 09:37:45;;;;;;;9.15;1.67;;;1.40;99.00;;;;;;7941095;29;20057;-70
2021/01/31 09:41:46;;;;;;;9.45;1.27;;;1.30;99.00;;;;;;7938080;29;20054;-69
2021/01/31 09:45:53;;;;;;;8.00;1.30;;;1.40;99.00;;;;;;7949417;29;20070;-69
2021/01/31 09:50:03;;;;;;;5.80;1.13;;;1.60;99.00;;;;;;7950166;29;20055;-70
2021/01/31 09:54:19;;;;;;;5.22;1.27;;;1.70;99.10;;;;;;7959950;29;20051;-69
2021/01/31 09:58:24;;;;;;;17.45;1.40;;;1.80;99.00;;;;;;7944434;29;20050;-70
2021/01/31 10:02:29;;;;;;;7.65;1.27;;;1.80;99.00;;;;;;7950617;29;20061;-70
2021/01/31 10:06:42;;;;;;;8.18;2.10;;;1.90;99.00;;;;;;7949119;29;20054;-69
2021/01/31 10:10:44;;;;;;;7.10;1.10;;;2.00;99.00;;;;;;7942564;29;20054;-70
2021/01/31 10:14:47;;;;;;;5.22;1.10;;;2.10;99.10;;;;;;7958184;29;20548;-69
2021/01/31 10:18:48;;;;;;;10.15;1.17;;;2.10;99.00;;;;;;7949916;29;20068;-70
2021/01/31 10:22:51;;;;;;;11.52;1.58;;;2.20;98.90;;;;;;7965589;29;20128;-69
2021/01/31 10:27:08;;;;;;;7.72;1.13;;;2.30;98.90;;;;;;7958563;29;20055;-69
2021/01/31 10:31:24;;;;;;;8.10;1.52;;;2.20;98.60;;;;;;7956879;29;20053;-69
2021/01/31 10:35:39;;;;;;;10.77;1.23;;;2.20;98.80;;;;;;7934763;29;20102;-69
2021/01/31 10:39:40;;;;;;;12.20;1.20;;;2.20;99.00;;;;;;7937875;29;20102;-69
2021/01/31 10:43:42;;;;;;;8.00;1.23;;;2.20;99.20;;;;;;7952595;29;20515;-69
2021/01/31 10:47:45;;;;;;;15.43;1.90;;;2.30;99.00;;;;;;7943538;29;20433;-69
2021/01/31 10:51:47;;;;;;;6.53;1.00;;;2.30;99.00;;;;;;7953381;29;20047;-69
2021/01/31 10:55:49;;;;;;;10.27;1.30;;;2.40;99.10;;;;;;7965593;29;20050;-69
2021/01/31 10:59:51;;;;;;;9.15;2.00;;;1.80;98.90;;;;;;7949999;29;20058;-69
2021/01/31 11:03:53;;;;;;;8.95;1.73;;;2.60;99.40;;;;;;7944848;29;20063;-69
2021/01/31 11:07:54;;;;;;;8.17;1.57;;;2.60;99.10;;;;;;7947314;29;20066;-69
2021/01/31 11:11:56;;;;;;;8.02;1.25;;;2.70;99.10;;;;;;7932993;29;20389;-69
2021/01/31 11:15:58;;;;;;;9.40;2.40;;;2.70;99.00;;;;;;7940609;29;20429;-69
2021/01/31 11:19:59;;;;;;;9.82;1.58;;;2.80;98.90;;;;;;7947827;29;20715;-69
2021/01/31 11:24:04;;;;;;;9.43;1.23;;;2.80;98.80;;;;;;7930020;29;20063;-69
2021/01/31 11:28:05;;;;;;;9.48;1.10;;;2.90;98.70;;;;;;7952792;29;20054;-69
2021/01/31 11:32:06;;;;;;;3.63;1.07;;;2.90;98.80;;;;;;7948484;29;20062;-69
2021/01/31 11:36:09;;;;;;;10.33;1.17;;;3.00;98.70;;;;;;7945406;29;20110;-69
2021/01/31 11:40:11;;;;;;;7.03;1.25;;;3.10;98.70;;;;;;7939335;29;20066;-69
2021/01/31 11:44:13;;;;;;;;;;;3.10;98.60;;;;;;7957456;29;20425;-69
2021/01/31 11:48:14;;;;;;;8.77;1.38;;;3.20;98.80;;;;;;7949877;29;20315;-69
2021/01/31 11:52:18;;;;;;;5.75;1.08;;;3.20;98.70;;;;;;7947779;29;20054;-69
2021/01/31 11:56:19;;;;;;;3.53;1.10;;;3.30;98.60;;;;;;7944771;29;20054;-68
2021/01/31 12:00:21;;;;;;;10.07;2.05;;;3.40;98.70;;;;;;7948363;29;20057;-69
2021/01/31 12:04:22;;;;;;;4.68;1.13;;;3.50;98.60;;;;;;7951457;29;20046;-68
2021/01/31 12:08:23;;;;;;;9.20;1.10;;;3.50;98.60;;;;;;7938787;29;20462;-69
2021/01/31 12:12:25;;;;;;;8.47;1.33;;;3.50;98.30;;;;;;7941075;29;20086;-69
2021/01/31 12:16:29;;;;;;;10.93;1.45;;;3.60;98.50;;;;;;7926604;29;20433;-69
2021/01/31 12:20:30;;;;;;;9.98;1.40;;;3.60;98.50;;;;;;7953790;29;20510;-70
2021/01/31 12:24:33;;;;;;;6.10;1.20;;;3.70;98.40;;;;;;7946880;29;20054;-70
2021/01/31 12:28:34;;;;;;;20.58;11.18;;;3.70;98.50;;;;;;7941720;29;20073;-69
2021/01/31 12:32:36;;;;;;;11.70;4.32;;;3.70;98.50;;;;;;7945518;29;20541;-70
2021/01/31 12:36:39;;;;;;;25.13;9.20;;;3.70;98.60;;;;;;7935963;29;20144;-69
2021/01/31 12:40:40;;;;;;;13.38;5.55;;;3.70;98.70;;;;;;7951154;29;20058;-69
2021/01/31 12:44:42;;;;;;;5.50;3.57;;;3.70;98.80;;;;;;7943705;29;20749;-71
2021/01/31 12:48:43;;;;;;;11.88;3.65;;;3.70;98.50;;;;;;7940294;29;20050;-69
2021/01/31 12:52:45;;;;;;;12.90;2.70;;;3.70;98.70;;;;;;7951818;29;20069;-70
2021/01/31 12:56:46;;;;;;;7.23;1.23;;;3.60;98.70;;;;;;7945105;29;20420;-69
2021/01/31 13:00:48;;;;;;;7.50;1.60;;;3.60;98.90;;;;;;7944137;29;20506;-69
2021/01/31 13:04:49;;;;;;;5.40;1.63;;;3.70;98.90;;;;;;7943905;29;20054;-70
2021/01/31 13:08:51;;;;;;;10.50;1.85;;;3.70;99.00;;;;;;7939287;29;20050;-69
2021/01/31 13:12:52;;;;;;;7.67;1.40;;;3.70;99.20;;;;;;7940684;29;20050;-69
2021/01/31 13:16:54;;;;;;;7.70;0.93;;;3.90;99.00;;;;;;7941590;29;20075;-68
2021/01/31 13:20:55;;;;;;;7.00;1.00;;;4.00;99.90;;;;;;7942589;29;20062;-69
2021/01/31 13:24:57;;;;;;;4.43;0.73;;;4.00;99.90;;;;;;7939930;29;20065;-69
2021/01/31 13:29:04;;;;;;;11.50;1.10;;;4.10;99.90;;;;;;7940718;29;20066;-69
2021/01/31 13:33:05;;;;;;;7.25;1.17;;;3.90;99.90;;;;;;7951976;29;20070;-69
2021/01/31 13:37:07;;;;;;;4.90;0.90;;;;;;;;;;7937571;29;20054;-69
2021/01/31 13:41:09;;;;;;;8.25;1.00;;;4.00;98.80;;;;;;7930881;29;20141;-69
2021/01/31 13:45:13;;;;;;;6.70;1.20;;;2.90;98.70;;;;;;7959546;29;20046;-69
2021/01/31 13:49:18;;;;;;;7.20;0.88;;;4.00;98.60;;;;;;7914556;29;20050;-69
2021/01/31 13:53:19;;;;;;;17.30;6.70;;;4.00;98.70;;;;;;7970689;29;20452;-68
2021/01/31 13:57:24;;;;;;;11.40;1.88;;;4.00;99.20;;;;;;7945640;29;20062;-69
2021/01/31 14:01:25;;;;;;;12.93;3.28;;;4.10;98.90;;;;;;7941029;29;20478;-69
2021/01/31 14:05:27;;;;;;;9.33;1.53;;;4.10;99.00;;;;;;7944749;29;20065;-68
2021/01/31 14:09:28;;;;;;;7.03;1.70;;;3.90;99.00;;;;;;7941382;29;20517;-68
2021/01/31 14:13:29;;;;;;;5.83;0.90;;;4.00;99.00;;;;;;7946797;29;20051;-69
2021/01/31 14:17:31;;;;;;;9.53;1.87;;;4.00;98.90;;;;;;7941328;29;20119;-69
2021/01/31 14:21:35;;;;;;;5.57;1.10;;;4.00;99.00;;;;;;7945652;29;20878;-68
2021/01/31 14:25:37;;;;;;;8.25;2.67;;;4.00;99.00;;;;;;7947499;29;20097;-68
2021/01/31 14:29:41;;;;;;;6.93;1.23;;;4.00;99.10;;;;;;7957601;29;20154;-69
2021/01/31 14:33:42;;;;;;;6.78;1.67;;;3.90;98.90;;;;;;7944792;29;20059;-69
2021/01/31 14:37:44;;;;;;;9.37;3.57;;;3.70;98.70;;;;;;7944562;29;20050;-68
2021/01/31 14:41:49;;;;;;;8.00;2.60;;;3.80;99.00;;;;;;7930563;29;20584;-68
2021/01/31 14:45:51;;;;;;;14.65;2.97;;;3.70;99.10;;;;;;7950499;29;20269;-69
2021/01/31 14:49:53;;;;;;;7.78;2.75;;;3.70;99.20;;;;;;7940807;29;20053;-69
2021/01/31 14:53:57;;;;;;;8.90;2.78;;;3.70;99.10;;;;;;7946606;29;20553;-69
2021/01/31 14:57:58;;;;;;;7.33;2.70;;;3.60;99.10;;;;;;7946048;29;20050;-69
2021/01/31 15:02:04;;;;;;;15.50;3.93;;;3.60;99.20;;;;;;7947617;29;20062;-69
2021/01/31 15:06:06;;;;;;;20.73;4.93;;;3.60;99.30;;;;;;7959771;29;20054;-69
2021/01/31 15:10:08;;;;;;;22.63;6.77;;;3.60;99.30;;;;;;7914319;29;20110;-68
2021/01/31 15:14:10;;;;;;;22.05;6.68;;;3.50;99.20;;;;;;7953453;29;20050;-69
2021/01/31 15:18:12;;;;;;;15.18;4.57;;;3.50;99.30;;;;;;7939195;29;20062;-69
2021/01/31 15:22:14;;;;;;;18.88;5.65;;;4.50;99.60;;;;;;7900448;29;20131;-69
2021/01/31 15:26:15;;;;;;;20.02;5.88;;;4.10;99.50;;;;;;7953914;29;20086;-68
2021/01/31 15:30:28;;;;;;;16.63;5.78;;;3.40;99.50;;;;;;7896893;29;20053;-68
2021/01/31 15:34:32;;;;;;;20.23;6.97;;;3.40;99.40;;;;;;7939142;29;20051;-69
2021/01/31 15:38:34;;;;;;;23.17;6.82;;;3.30;99.40;;;;;;7937579;29;20351;-69
2021/01/31 15:42:36;;;;;;;25.63;9.70;;;3.10;99.40;;;;;;7925524;29;20631;-69
2021/01/31 15:46:38;;;;;;;;;;;4.50;99.80;;;;;;7948060;29;20089;-69
2021/01/31 15:50:42;;;;;;;13.45;6.32;;;3.20;99.40;;;;;;7940204;29;19933;-69
2021/01/31 15:54:46;;;;;;;14.07;6.97;;;3.20;99.50;;;;;;7927203;29;20124;-69
2021/01/31 15:58:47;;;;;;;12.87;5.60;;;3.20;99.60;;;;;;7945105;29;20087;-70
2021/01/31 16:02:49;;;;;;;21.47;12.27;;;3.20;99.50;;;;;;7960287;29;20038;-69
2021/01/31 16:06:54;;;;;;;16.83;5.00;;;3.20;99.50;;;;;;7950815;29;20057;-69
2021/01/31 16:10:56;;;;;;;10.57;3.05;;;3.10;99.40;;;;;;7940663;29;20544;-69
2021/01/31 16:14:57;;;;;;;10.13;3.10;;;3.00;99.40;;;;;;7942478;29;20134;-69
2021/01/31 16:19:01;;;;;;;8.75;3.28;;;3.10;99.50;;;;;;7929734;29;20052;-69
2021/01/31 16:23:02;;;;;;;10.93;4.07;;;3.10;99.50;;;;;;7948318;29;20046;-69
2021/01/31 16:27:04;;;;;;;9.53;3.37;;;3.10;99.50;;;;;;7939992;29;20485;-69
2021/01/31 16:31:06;;;;;;;12.23;4.53;;;3.10;99.40;;;;;;7955798;29;20085;-69
2021/01/31 16:35:10;;;;;;;12.30;4.63;;;3.10;99.40;;;;;;7945257;29;20538;-68
2021/01/31 16:39:12;;;;;;;12.85;5.13;;;3.10;99.30;;;;;;7934612;29;20062;-69
2021/01/31 16:43:17;;;;;;;16.40;5.70;;;3.10;99.40;;;;;;7943394;29;20089;-68
2021/01/31 16:47:19;;;;;;;12.45;6.13;;;3.00;99.30;;;;;;7937976;29;20488;-68
2021/01/31 16:51:20;;;;;;;18.85;7.28;;;3.00;99.30;;;;;;7937364;29;20051;-68
2021/01/31 16:55:21;;;;;;;13.57;6.73;;;2.90;99.30;;;;;;7945118;29;20775;-69
2021/01/31 16:59:23;;;;;;;23.83;8.93;;;2.90;99.30;;;;;;7949725;29;20058;-68
2021/01/31 17:03:25;;;;;;;26.77;8.75;;;2.90;99.30;;;;;;7938926;29;20046;-68
2021/01/31 17:07:26;;;;;;;16.87;8.37;;;2.90;99.40;;;;;;7942125;29;20127;-69
2021/01/31 17:11:30;;;;;;;28.20;9.67;;;2.80;99.40;;;;;;7941780;29;20525;-69
2021/01/31 17:15:32;;;;;;;25.00;9.60;;;2.30;99.30;;;;;;7935821;29;20085;-69
2021/01/31 17:19:34;;;;;;;19.17;6.80;;;2.80;99.50;;;;;;7936620;29;20153;-69
2021/01/31 17:23:43;;;;;;;15.85;5.80;;;3.50;99.60;;;;;;7937936;29;20065;-68
2021/01/31 17:27:45;;;;;;;28.73;8.93;;;2.70;99.40;;;;;;7939838;29;20513;-69
2021/01/31 17:31:55;;;;;;;40.78;16.92;;;2.60;99.40;;;;;;7942981;29;20369;-69
2021/01/31 17:35:56;;;;;;;27.67;10.15;;;2.60;99.40;;;;;;7930253;29;20047;-69
2021/01/31 17:40:00;;;;;;;22.47;9.03;;;2.60;99.40;;;;;;7941843;29;20054;-69
2021/01/31 17:44:05;;;;;;;28.20;11.00;;;2.50;99.40;;;;;;7944971;29;20054;-69
2021/01/31 17:48:08;;;;;;;23.25;9.88;;;2.50;99.40;;;;;;7933533;29;20676;-69
2021/01/31 17:52:13;;;;;;;22.50;9.43;;;2.40;99.40;;;;;;7949199;29;20051;-69
2021/01/31 17:56:14;;;;;;;21.25;9.80;;;2.40;99.40;;;;;;7957310;29;20292;-69
2021/01/31 18:00:19;;;;;;;26.13;9.97;;;2.40;99.40;;;;;;7944381;29;20058;-69
2021/01/31 18:04:20;;;;;;;23.60;9.68;;;2.30;99.50;;;;;;7959959;29;20414;-69
2021/01/31 18:08:21;;;;;;;20.63;10.27;;;2.30;99.50;;;;;;7946953;29;20054;-69
2021/01/31 18:12:23;;;;;;;21.90;10.10;;;2.30;99.40;;;;;;7965358;29;20478;-69
2021/01/31 18:16:24;;;;;;;28.77;11.40;;;2.20;99.40;;;;;;7949595;29;20054;-69
2021/01/31 18:20:27;;;;;;;25.88;11.93;;;2.20;99.40;;;;;;7948704;29;20582;-69
2021/01/31 18:24:28;;;;;;;26.75;14.05;;;2.10;99.40;;;;;;7948098;29;20062;-69
2021/01/31 18:28:30;;;;;;;28.90;14.93;;;2.10;99.40;;;;;;7949420;29;20118;-69
2021/01/31 18:32:34;;;;;;;31.45;17.05;;;2.10;99.40;;;;;;7950074;29;20475;-69
2021/01/31 18:36:36;;;;;;;31.85;15.57;;;2.00;99.30;;;;;;7946524;29;20055;-69
2021/01/31 18:40:37;;;;;;;37.93;17.80;;;2.00;99.30;;;;;;7942882;29;20039;-69
2021/01/31 18:44:39;;;;;;;34.17;18.30;;;1.90;99.40;;;;;;7943369;29;20494;-69
2021/01/31 18:48:40;;;;;;;38.30;17.65;;;2.30;99.40;;;;;;7957007;29;20050;-69
2021/01/31 18:52:42;;;;;;;31.17;16.43;;;1.80;99.30;;;;;;7947153;29;20698;-69
2021/01/31 18:56:44;;;;;;;32.42;17.73;;;1.70;99.00;;;;;;7962242;29;20326;-69
2021/01/31 19:00:46;;;;;;;;;;;1.70;99.30;;;;;;7946054;29;20239;-69
2021/01/31 19:04:47;;;;;;;38.83;18.75;;;1.70;99.30;;;;;;7950035;29;20139;-69
2021/01/31 19:08:48;;;;;;;34.73;16.03;;;1.70;99.50;;;;;;7933739;29;20069;-69
2021/01/31 19:12:53;;;;;;;39.87;18.03;;;1.60;99.40;;;;;;7940065;29;20061;-69
2021/01/31 19:16:54;;;;;;;37.28;18.08;;;1.60;99.40;;;;;;7947165;29;20066;-69
2021/01/31 19:20:55;;;;;;;41.50;17.40;;;1.60;99.50;;;;;;7946723;29;20529;-69
2021/01/31 19:24:57;;;;;;;44.80;14.63;;;1.60;99.50;;;;;;7964419;29;20586;-70
2021/01/31 19:28:58;;;;;;;34.40;15.13;;;2.40;99.60;;;;;;7939409;29;564883;-69
2021/01/31 19:33:01;;;;;;;39.23;17.00;;;1.60;99.40;;;;;;7918638;29;20485;-68
2021/01/31 19:37:03;;;;;;;35.33;16.38;;;1.60;99.40;;;;;;7946328;29;20098;-68
2021/01/31 19:41:08;;;;;;;36.28;16.08;;;1.60;99.70;;;;;;7963590;29;20057;-68
2021/01/31 19:45:14;;;;;;;40.47;17.30;;;1.60;99.40;;;;;;7952722;29;20054;-68
2021/01/31 19:49:15;;;;;;;44.47;18.67;;;1.50;99.30;;;;;;7939774;29;20057;-67
2021/01/31 19:53:17;;;;;;;40.33;19.10;;;1.50;99.30;;;;;;7932382;29;20098;-68
2021/01/31 19:57:18;;;;;;;37.80;18.65;;;1.50;99.30;;;;;;7942696;29;20054;-68
2021/01/31 20:01:20;;;;;;;39.93;18.70;;;1.50;99.30;;;;;;7956385;29;20070;-68
2021/01/31 20:05:24;;;;;;;40.17;18.30;;;1.40;99.30;;;;;;7944728;29;20062;-68
2021/01/31 20:09:26;;;;;;;;;;;1.40;99.40;;;;;;7938700;29;20449;-68
2021/01/31 20:13:28;;;;;;;34.58;17.38;;;1.30;99.20;;;;;;7945932;29;19947;-67
2021/01/31 20:17:29;;;;;;;32.63;16.40;;;1.30;99.40;;;;;;7955335;29;20054;-68
2021/01/31 20:21:32;;;;;;;32.15;17.05;;;1.30;99.30;;;;;;7942617;29;20115;-68
2021/01/31 20:25:33;;;;;;;35.83;17.27;;;1.20;99.30;;;;;;7947843;29;20142;-68
2021/01/31 20:29:35;;;;;;;31.60;16.52;;;1.20;99.40;;;;;;7942969;29;20072;-68
2021/01/31 20:33:36;;;;;;;34.37;17.87;;;1.20;99.40;;;;;;7939188;29;20069;-67
2021/01/31 20:37:38;;;;;;;38.87;17.57;;;1.20;99.30;;;;;;7955028;29;20066;-67
2021/01/31 20:41:39;;;;;;;32.20;16.17;;;1.10;99.30;;;;;;7937284;29;20484;-67
2021/01/31 20:45:40;;;;;;;38.17;17.73;;;1.10;99.20;;;;;;7939325;29;20829;-68
2021/01/31 20:49:44;;;;;;;34.00;16.95;;;1.10;99.20;;;;;;7944064;29;20058;-68
2021/01/31 20:53:46;;;;;;;31.55;16.88;;;1.10;99.20;;;;;;7941141;29;20062;-69
2021/01/31 20:57:48;;;;;;;37.22;17.02;;;1.00;99.20;;;;;;7936285;29;20055;-68
2021/01/31 21:01:50;;;;;;;29.35;15.60;;;1.00;99.20;;;;;;7946656;29;20066;-68
2021/01/31 21:05:52;;;;;;;30.57;15.60;;;0.90;99.20;;;;;;7941651;29;20086;-69
2021/01/31 21:09:53;;;;;;;37.92;17.55;;;0.90;99.20;;;;;;7936247;29;20510;-68
2021/01/31 21:13:55;;;;;;;29.02;15.43;;;0.90;99.20;;;;;;7954870;29;20502;-68
2021/01/31 21:17:56;;;;;;;30.20;15.38;;;0.90;99.10;;;;;;7938578;29;20057;-67
2021/01/31 21:21:58;;;;;;;34.17;15.90;;;0.90;99.10;;;;;;7942055;29;20054;-67
2021/01/31 21:25:59;;;;;;;35.00;16.67;;;0.90;99.10;;;;;;7928917;29;20054;-69
2021/01/31 21:30:01;;;;;;;32.22;17.42;;;0.90;99.00;;;;;;7948172;29;20058;-67